createdAt,value
2018-01-03T00:01:37.268Z,950.85
2018-01-03T00:02:37.270Z,950.86
2018-01-03T00:04:30.690Z,950.84
2018-01-03T00:05:30.652Z,950.83
2018-01-03T00:07:24.035Z,950.72
2018-01-03T00:08:24.034Z,950.76
2018-01-03T00:10:17.444Z,950.70
2018-01-03T00:11:17.428Z,950.73
2018-01-03T00:13:10.310Z,950.69
2018-01-03T00:14:10.309Z,950.68
2018-01-03T00:16:03.711Z,950.57
2018-01-03T00:17:03.695Z,950.56
2018-01-03T00:18:56.580Z,950.54
2018-01-03T00:19:56.582Z,950.45
2018-01-03T00:21:50.006Z,950.42
2018-01-03T00:22:49.958Z,950.42
2018-01-03T00:24:43.338Z,950.41
2018-01-03T00:25:43.340Z,950.40
2018-01-03T00:27:36.882Z,950.35
2018-01-03T00:28:36.851Z,950.32
2018-01-03T00:30:30.263Z,950.27
2018-01-03T00:31:30.265Z,950.22
2018-01-03T00:33:23.678Z,950.29
2018-01-03T00:34:23.658Z,950.12
2018-01-03T00:36:17.040Z,950.04
2018-01-03T00:37:17.044Z,950.04
2018-01-03T00:39:10.457Z,950.12
2018-01-03T00:40:10.434Z,950.04
2018-01-03T00:42:03.814Z,950.01
2018-01-03T00:43:03.814Z,949.97
2018-01-03T00:44:57.214Z,949.99
2018-01-03T00:45:57.196Z,949.89
2018-01-03T00:47:50.576Z,949.87
2018-01-03T00:48:50.579Z,949.81
2018-01-03T00:50:43.979Z,949.86
2018-01-03T00:51:43.960Z,949.79
2018-01-03T00:53:37.345Z,949.60
2018-01-03T00:54:37.344Z,949.67
2018-01-03T00:56:30.752Z,949.53
2018-01-03T00:57:30.725Z,949.40
2018-01-03T00:59:23.610Z,949.39
2018-01-03T01:00:23.613Z,949.37
2018-01-03T01:02:17.013Z,949.30
2018-01-03T01:03:16.996Z,949.32
2018-01-03T01:05:10.374Z,949.27
2018-01-03T01:06:10.374Z,949.26
2018-01-03T01:08:03.774Z,949.26
2018-01-03T01:09:03.758Z,949.24
2018-01-03T01:10:57.135Z,949.23
2018-01-03T01:11:57.137Z,949.18
2018-01-03T01:13:50.054Z,949.03
2018-01-03T01:14:50.022Z,949.05
2018-01-03T01:16:43.405Z,948.98
2018-01-03T01:17:43.405Z,948.97
2018-01-03T01:19:36.805Z,949.00
2018-01-03T01:20:36.786Z,949.02
2018-01-03T01:22:30.167Z,948.98
2018-01-03T01:23:30.166Z,949.01
2018-01-03T01:25:23.576Z,949.04
2018-01-03T01:26:23.557Z,948.97
2018-01-03T01:28:16.939Z,948.89
2018-01-03T01:29:16.940Z,948.93
2018-01-03T01:31:10.343Z,948.81
2018-01-03T01:32:10.322Z,948.85
2018-01-03T01:34:03.733Z,948.74
2018-01-03T01:35:03.703Z,948.70
2018-01-03T01:36:57.079Z,948.68
2018-01-03T01:37:57.083Z,948.80
2018-01-03T01:39:50.482Z,948.65
2018-01-03T01:40:50.465Z,948.64
2018-01-03T01:42:43.846Z,948.54
2018-01-03T01:43:43.847Z,948.53
2018-01-03T01:45:36.752Z,948.44
2018-01-03T01:46:36.733Z,948.37
2018-01-03T01:48:29.670Z,948.33
2018-01-03T01:49:29.617Z,948.32
2018-01-03T01:51:22.526Z,948.44
2018-01-03T01:52:22.506Z,948.38
2018-01-03T01:54:15.890Z,948.32
2018-01-03T01:55:15.888Z,948.36
2018-01-03T01:57:09.291Z,948.37
2018-01-03T01:58:09.272Z,948.31
2018-01-03T02:00:02.652Z,948.31
2018-01-03T02:01:02.656Z,948.31
2018-01-03T02:02:56.050Z,948.32
2018-01-03T02:03:56.033Z,948.26
2018-01-03T02:05:49.411Z,948.32
2018-01-03T02:06:49.415Z,948.31
2018-01-03T02:08:42.820Z,948.31
2018-01-03T02:09:42.799Z,948.34
2018-01-03T02:11:36.176Z,948.27
2018-01-03T02:12:36.177Z,948.19
2018-01-03T02:14:29.580Z,948.08
2018-01-03T02:15:29.563Z,948.08
2018-01-03T02:17:22.944Z,948.02
2018-01-03T02:18:22.946Z,947.93
2018-01-03T02:20:16.359Z,947.87
2018-01-03T02:21:16.329Z,947.77
2018-01-03T02:23:09.703Z,947.67
2018-01-03T02:24:09.705Z,947.70
2018-01-03T02:26:03.106Z,947.61
2018-01-03T02:27:03.089Z,947.61
2018-01-03T02:28:56.469Z,947.41
2018-01-03T02:29:56.470Z,947.43
2018-01-03T02:31:49.870Z,947.22
2018-01-03T02:32:49.852Z,947.22
2018-01-03T02:34:43.236Z,946.94
2018-01-03T02:35:43.237Z,947.03
2018-01-03T02:37:36.141Z,947.31
2018-01-03T02:38:36.122Z,947.26
2018-01-03T02:40:29.502Z,947.29
2018-01-03T02:41:29.506Z,947.31
2018-01-03T02:43:22.904Z,947.11
2018-01-03T02:44:22.886Z,947.04
2018-01-03T02:46:16.267Z,947.00
2018-01-03T02:47:16.270Z,947.06
2018-01-03T02:49:09.172Z,946.82
2018-01-03T02:50:09.154Z,946.82
2018-01-03T02:52:02.048Z,946.95
2018-01-03T02:53:02.046Z,946.87
2018-01-03T02:54:55.565Z,946.84
2018-01-03T02:55:55.483Z,946.76
2018-01-03T02:57:48.870Z,946.59
2018-01-03T02:58:48.866Z,946.58
2018-01-03T03:00:41.769Z,946.49
2018-01-03T03:01:41.753Z,946.58
2018-01-03T03:03:34.637Z,946.53
2018-01-03T03:04:34.638Z,946.48
2018-01-03T03:06:28.038Z,946.30
2018-01-03T03:07:28.025Z,946.22
2018-01-03T03:09:21.400Z,946.13
2018-01-03T03:10:21.402Z,946.10
2018-01-03T03:12:14.806Z,945.92
2018-01-03T03:13:14.788Z,945.78
2018-01-03T03:15:08.170Z,945.80
2018-01-03T03:16:08.172Z,945.78
2018-01-03T03:18:01.568Z,945.48
2018-01-03T03:19:01.550Z,945.42
2018-01-03T03:20:54.930Z,945.58
2018-01-03T03:21:54.931Z,945.56
2018-01-03T03:23:48.330Z,945.27
2018-01-03T03:24:48.314Z,945.41
2018-01-03T03:26:41.693Z,945.22
2018-01-03T03:27:41.698Z,945.18
2018-01-03T03:29:35.094Z,945.22
2018-01-03T03:30:35.078Z,945.18
2018-01-03T03:32:28.497Z,945.22
2018-01-03T03:33:28.462Z,945.19
2018-01-03T03:35:21.841Z,945.22
2018-01-03T03:36:21.844Z,945.16
2018-01-03T03:38:15.286Z,945.00
2018-01-03T03:39:15.268Z,944.86
2018-01-03T03:41:09.531Z,944.86
2018-01-03T03:42:09.529Z,944.73
2018-01-03T03:44:02.930Z,944.57
2018-01-03T03:45:02.912Z,944.64
2018-01-03T03:46:56.295Z,944.49
2018-01-03T03:47:56.296Z,944.60
2018-01-03T03:49:49.709Z,944.40
2018-01-03T03:50:49.678Z,944.35
2018-01-03T03:52:43.059Z,944.22
2018-01-03T03:53:43.062Z,944.25
2018-01-03T03:55:36.481Z,944.17
2018-01-03T03:56:36.448Z,944.18
2018-01-03T03:58:29.829Z,944.07
2018-01-03T03:59:29.832Z,944.08
2018-01-03T04:01:23.284Z,944.02
2018-01-03T04:02:23.269Z,944.00
2018-01-03T04:04:16.649Z,944.06
2018-01-03T04:05:16.651Z,943.97
2018-01-03T04:07:10.065Z,943.82
2018-01-03T04:08:10.035Z,943.50
2018-01-03T04:10:03.416Z,943.51
2018-01-03T04:11:03.419Z,943.51
2018-01-03T04:12:56.817Z,943.43
2018-01-03T04:13:56.803Z,943.40
2018-01-03T04:15:50.185Z,943.53
2018-01-03T04:16:50.185Z,943.54
2018-01-03T04:18:43.584Z,943.76
2018-01-03T04:19:43.566Z,943.79
2018-01-03T04:21:36.951Z,943.38
2018-01-03T04:22:36.953Z,943.20
2018-01-03T04:24:30.354Z,943.33
2018-01-03T04:25:30.338Z,943.24
2018-01-03T04:27:23.725Z,943.01
2018-01-03T04:28:23.722Z,942.88
2018-01-03T04:30:16.631Z,942.93
2018-01-03T04:31:16.612Z,942.73
2018-01-03T04:33:09.540Z,942.66
2018-01-03T04:34:09.504Z,942.82
2018-01-03T04:36:02.902Z,942.92
2018-01-03T04:37:02.887Z,942.86
2018-01-03T04:38:56.268Z,943.26
2018-01-03T04:39:56.270Z,942.90
2018-01-03T04:41:49.671Z,942.95
2018-01-03T04:42:49.652Z,942.90
2018-01-03T04:44:43.045Z,942.88
2018-01-03T04:45:43.052Z,942.85
2018-01-03T04:47:35.953Z,942.81
2018-01-03T04:48:35.936Z,942.72
2018-01-03T04:50:29.324Z,942.38
2018-01-03T04:51:29.332Z,942.53
2018-01-03T04:53:22.726Z,942.54
2018-01-03T04:54:22.710Z,942.56
2018-01-03T04:56:16.122Z,942.68
2018-01-03T04:57:16.096Z,942.22
2018-01-03T04:59:08.982Z,941.98
2018-01-03T05:00:08.983Z,941.97
2018-01-03T05:02:01.892Z,941.93
2018-01-03T05:03:01.875Z,941.82
2018-01-03T05:04:54.801Z,941.49
2018-01-03T05:05:54.808Z,941.37
2018-01-03T05:07:47.713Z,941.55
2018-01-03T05:08:47.693Z,941.40
2018-01-03T05:10:41.096Z,940.99
2018-01-03T05:11:41.074Z,941.13
2018-01-03T05:13:34.456Z,940.92
2018-01-03T05:14:34.462Z,941.07
2018-01-03T05:16:27.370Z,940.91
2018-01-03T05:17:27.357Z,940.90
2018-01-03T05:19:20.737Z,940.57
2018-01-03T05:20:20.734Z,940.71
2018-01-03T05:22:14.139Z,940.79
2018-01-03T05:23:14.125Z,940.77
2018-01-03T05:25:07.536Z,940.86
2018-01-03T05:26:07.517Z,940.92
2018-01-03T05:28:00.898Z,940.83
2018-01-03T05:29:00.904Z,940.58
2018-01-03T05:30:54.309Z,940.52
2018-01-03T05:31:54.289Z,940.45
2018-01-03T05:33:47.672Z,940.41
2018-01-03T05:34:47.676Z,940.37
2018-01-03T05:36:41.166Z,940.20
2018-01-03T05:37:41.057Z,940.57
2018-01-03T05:39:34.441Z,940.09
2018-01-03T05:40:34.444Z,939.88
2018-01-03T05:42:27.856Z,939.87
2018-01-03T05:43:27.841Z,940.03
2018-01-03T05:45:21.284Z,939.89
2018-01-03T05:46:21.268Z,939.79
2018-01-03T05:48:14.647Z,939.86
2018-01-03T05:49:14.652Z,939.79
2018-01-03T05:51:08.055Z,940.04
2018-01-03T05:52:08.037Z,939.82
2018-01-03T05:54:00.925Z,939.91
2018-01-03T05:55:00.927Z,939.88
2018-01-03T05:56:54.330Z,939.59
2018-01-03T05:57:54.313Z,939.64
2018-01-03T05:59:47.694Z,939.44
2018-01-03T06:00:47.700Z,939.47
2018-01-03T06:02:41.104Z,939.36
2018-01-03T06:03:41.084Z,939.03
2018-01-03T06:05:34.498Z,938.85
2018-01-03T06:06:34.474Z,938.83
2018-01-03T06:08:27.855Z,938.74
2018-01-03T06:09:27.858Z,938.45
2018-01-03T06:11:20.767Z,938.60
2018-01-03T06:12:20.749Z,938.43
2018-01-03T06:14:14.133Z,938.39
2018-01-03T06:15:14.134Z,938.19
2018-01-03T06:17:07.540Z,938.10
2018-01-03T06:18:07.522Z,938.11
2018-01-03T06:20:00.902Z,937.98
2018-01-03T06:21:00.906Z,937.88
2018-01-03T06:22:54.312Z,937.98
2018-01-03T06:23:54.291Z,937.91
2018-01-03T06:25:47.700Z,937.98
2018-01-03T06:26:47.680Z,937.93
2018-01-03T06:28:41.113Z,937.77
2018-01-03T06:29:41.066Z,938.18
2018-01-03T06:31:34.476Z,938.17
2018-01-03T06:32:34.454Z,938.14
2018-01-03T06:34:27.838Z,937.97
2018-01-03T06:35:27.842Z,938.23
2018-01-03T06:37:21.245Z,937.85
2018-01-03T06:38:21.226Z,937.58
2018-01-03T06:40:14.616Z,937.36
2018-01-03T06:41:14.614Z,937.06
2018-01-03T06:43:08.016Z,937.03
2018-01-03T06:44:07.999Z,936.79
2018-01-03T06:46:01.383Z,936.94
2018-01-03T06:47:01.388Z,937.09
2018-01-03T06:48:54.296Z,937.07
2018-01-03T06:49:54.329Z,937.09
2018-01-03T06:51:47.685Z,936.97
2018-01-03T06:52:47.665Z,937.01
2018-01-03T06:54:41.046Z,937.12
2018-01-03T06:55:41.050Z,936.69
2018-01-03T06:57:34.458Z,936.65
2018-01-03T06:58:34.439Z,936.88
2018-01-03T07:00:27.820Z,937.06
2018-01-03T07:01:27.824Z,937.13
2018-01-03T07:03:21.228Z,937.21
2018-01-03T07:04:21.209Z,936.95
2018-01-03T07:06:14.596Z,937.04
2018-01-03T07:07:14.602Z,936.92
2018-01-03T07:09:08.009Z,936.93
2018-01-03T07:10:07.986Z,936.76
2018-01-03T07:12:01.404Z,937.01
2018-01-03T07:13:01.385Z,936.62
2018-01-03T07:14:54.769Z,936.83
2018-01-03T07:15:54.771Z,936.72
2018-01-03T07:17:48.177Z,936.69
2018-01-03T07:18:48.159Z,936.84
2018-01-03T07:20:41.547Z,937.02
2018-01-03T07:21:41.550Z,936.91
2018-01-03T07:23:34.952Z,936.80
2018-01-03T07:24:34.935Z,936.62
2018-01-03T07:26:28.321Z,936.36
2018-01-03T07:27:28.322Z,936.39
2018-01-03T07:29:21.728Z,936.53
2018-01-03T07:30:21.710Z,936.50
2018-01-03T07:32:15.134Z,936.76
2018-01-03T07:33:15.099Z,936.51
2018-01-03T07:35:08.485Z,936.31
2018-01-03T07:36:08.487Z,936.23
2018-01-03T07:38:01.895Z,936.05
2018-01-03T07:39:01.877Z,935.93
2018-01-03T07:40:55.291Z,935.85
2018-01-03T07:41:55.275Z,935.60
2018-01-03T07:43:48.681Z,935.71
2018-01-03T07:44:48.665Z,935.80
2018-01-03T07:46:42.049Z,935.66
2018-01-03T07:47:42.052Z,935.63
2018-01-03T07:49:35.457Z,935.62
2018-01-03T07:50:35.440Z,935.62
2018-01-03T07:52:28.823Z,935.61
2018-01-03T07:53:28.969Z,935.59
2018-01-03T07:55:22.287Z,935.48
2018-01-03T07:56:22.269Z,935.43
2018-01-03T07:58:15.182Z,935.38
2018-01-03T07:59:15.162Z,935.44
2018-01-03T08:01:08.548Z,935.51
2018-01-03T08:02:08.553Z,935.39
2018-01-03T08:04:01.971Z,935.40
2018-01-03T08:05:02.248Z,935.24
2018-01-03T08:06:55.359Z,935.24
2018-01-03T08:07:55.363Z,935.16
2018-01-03T08:09:48.772Z,935.33
2018-01-03T08:10:48.754Z,935.15
2018-01-03T08:12:42.137Z,935.00
2018-01-03T08:13:42.143Z,935.24
2018-01-03T08:15:35.054Z,935.11
2018-01-03T08:16:35.037Z,935.28
2018-01-03T08:18:28.454Z,935.25
2018-01-03T08:19:28.434Z,935.22
2018-01-03T08:21:21.367Z,935.57
2018-01-03T08:22:21.374Z,935.29
2018-01-03T08:24:14.776Z,935.47
2018-01-03T08:25:14.825Z,935.43
2018-01-03T08:27:08.423Z,935.34
2018-01-03T08:28:08.254Z,935.47
2018-01-03T08:30:01.554Z,935.60
2018-01-03T08:31:01.538Z,935.55
2018-01-03T08:32:54.943Z,935.57
2018-01-03T08:33:54.926Z,935.69
2018-01-03T08:35:48.392Z,935.72
2018-01-03T08:36:48.351Z,935.79
2018-01-03T08:38:42.073Z,935.88
2018-01-03T08:39:41.748Z,935.92
2018-01-03T08:41:35.141Z,936.00
2018-01-03T08:42:35.135Z,936.05
2018-01-03T08:44:28.621Z,936.30
2018-01-03T08:45:28.606Z,936.19
2018-01-03T08:47:21.993Z,936.24
2018-01-03T08:48:21.997Z,935.96
2018-01-03T08:50:15.529Z,936.03
2018-01-03T08:51:15.394Z,935.93
2018-01-03T08:53:09.248Z,936.08
2018-01-03T08:54:08.827Z,936.19
2018-01-03T08:56:02.186Z,936.33
2018-01-03T08:57:02.168Z,936.56
2018-01-03T08:58:55.575Z,937.25
2018-01-03T08:59:55.560Z,937.18
2018-01-03T09:01:48.947Z,937.50
2018-01-03T09:02:48.946Z,937.72
2018-01-03T09:04:42.359Z,937.62
2018-01-03T09:05:42.330Z,937.52
2018-01-03T09:07:35.721Z,937.53
2018-01-03T09:08:35.722Z,937.52
2018-01-03T09:10:29.125Z,937.73
2018-01-03T09:11:29.107Z,937.76
2018-01-03T09:13:22.502Z,937.67
2018-01-03T09:14:22.642Z,937.35
2018-01-03T09:16:15.909Z,936.52
2018-01-03T09:17:15.905Z,936.23
2018-01-03T09:19:09.292Z,936.76
2018-01-03T09:20:09.282Z,936.87
2018-01-03T09:22:02.666Z,936.77
2018-01-03T09:23:02.670Z,936.61
2018-01-03T09:24:56.079Z,936.50
2018-01-03T09:25:56.054Z,936.65
2018-01-03T09:27:49.446Z,936.82
2018-01-03T09:28:49.450Z,936.75
2018-01-03T09:30:42.854Z,936.71
2018-01-03T09:31:42.849Z,936.71
2018-01-03T09:33:36.220Z,937.05
2018-01-03T09:34:36.222Z,937.18
2018-01-03T09:36:29.638Z,937.28
2018-01-03T09:37:29.616Z,937.16
2018-01-03T09:39:23.019Z,937.00
2018-01-03T09:40:23.001Z,937.07
2018-01-03T09:42:16.404Z,937.10
2018-01-03T09:43:16.385Z,937.10
2018-01-03T09:45:09.794Z,937.38
2018-01-03T09:46:09.778Z,937.22
2018-01-03T09:48:03.153Z,937.42
2018-01-03T09:49:03.155Z,937.58
2018-01-03T09:50:56.558Z,937.57
2018-01-03T09:51:56.540Z,937.53
2018-01-03T09:53:49.943Z,937.61
2018-01-03T09:54:49.924Z,937.84
2018-01-03T09:56:43.348Z,938.09
2018-01-03T09:57:43.319Z,938.03
2018-01-03T09:59:36.701Z,937.86
2018-01-03T10:00:36.704Z,937.91
2018-01-03T10:02:30.108Z,937.76
2018-01-03T10:03:30.089Z,937.70
2018-01-03T10:05:23.493Z,937.82
2018-01-03T10:06:23.474Z,937.94
2018-01-03T10:08:16.869Z,937.90
2018-01-03T10:09:16.857Z,937.93
2018-01-03T10:11:10.267Z,937.96
2018-01-03T10:12:10.245Z,937.99
2018-01-03T10:14:03.628Z,937.93
2018-01-03T10:15:03.660Z,938.12
2018-01-03T10:16:57.045Z,938.22
2018-01-03T10:17:57.026Z,938.19
2018-01-03T10:19:50.406Z,938.11
2018-01-03T10:20:50.410Z,937.92
2018-01-03T10:22:44.823Z,937.81
2018-01-03T10:23:44.799Z,937.75
2018-01-03T10:25:38.196Z,937.91
2018-01-03T10:26:38.179Z,937.96
2018-01-03T10:28:31.573Z,937.98
2018-01-03T10:29:31.573Z,938.07
2018-01-03T10:31:24.980Z,938.02
2018-01-03T10:32:24.989Z,938.22
2018-01-03T10:34:18.343Z,938.32
2018-01-03T10:35:18.345Z,938.45
2018-01-03T10:37:11.805Z,938.56
2018-01-03T10:38:11.750Z,938.59
2018-01-03T10:40:05.145Z,938.78
2018-01-03T10:41:05.144Z,938.94
2018-01-03T10:42:58.548Z,939.26
2018-01-03T10:43:58.529Z,939.53
2018-01-03T10:45:51.959Z,939.77
2018-01-03T10:46:51.971Z,939.92
2018-01-03T10:48:47.069Z,940.49
2018-01-03T10:49:47.071Z,940.46
2018-01-03T10:51:40.493Z,940.52
2018-01-03T10:52:40.475Z,940.59
2018-01-03T10:54:33.889Z,940.86
2018-01-03T10:55:33.862Z,940.61
2018-01-03T10:57:27.244Z,940.35
2018-01-03T10:58:27.294Z,940.47
2018-01-03T11:00:21.657Z,940.57
2018-01-03T11:01:21.635Z,940.51
2018-01-03T11:03:15.018Z,940.73
2018-01-03T11:04:15.135Z,940.71
2018-01-03T11:06:08.423Z,940.82
2018-01-03T11:07:08.407Z,940.87
2018-01-03T11:09:01.798Z,941.02
2018-01-03T11:10:01.802Z,941.07
2018-01-03T11:11:56.209Z,941.34
2018-01-03T11:12:56.194Z,941.48
2018-01-03T11:14:49.580Z,941.79
2018-01-03T11:15:49.588Z,941.72
2018-01-03T11:17:42.991Z,941.44
2018-01-03T11:18:42.968Z,941.23
2018-01-03T11:20:36.355Z,941.28
2018-01-03T11:21:36.357Z,941.37
2018-01-03T11:23:29.762Z,941.56
2018-01-03T11:24:29.739Z,941.34
2018-01-03T11:26:23.133Z,941.07
2018-01-03T11:27:23.135Z,940.80
2018-01-03T11:29:16.542Z,940.92
2018-01-03T11:30:16.517Z,940.75
2018-01-03T11:32:09.902Z,940.91
2018-01-03T11:33:09.902Z,941.10
2018-01-03T11:35:03.300Z,940.98
2018-01-03T11:36:03.310Z,940.87
2018-01-03T11:37:56.672Z,941.02
2018-01-03T11:38:56.674Z,941.00
2018-01-03T11:40:50.074Z,941.17
2018-01-03T11:41:50.057Z,941.18
2018-01-03T11:43:43.436Z,941.14
2018-01-03T11:44:43.438Z,941.27
2018-01-03T11:46:36.894Z,941.18
2018-01-03T11:47:36.876Z,941.18
2018-01-03T11:49:30.268Z,941.27
2018-01-03T11:50:30.274Z,941.30
2018-01-03T11:52:23.701Z,941.48
2018-01-03T11:53:23.718Z,941.50
2018-01-03T11:55:17.096Z,941.50
2018-01-03T11:56:17.076Z,941.65
2018-01-03T11:58:10.487Z,941.86
2018-01-03T11:59:10.460Z,942.16
2018-01-03T12:01:04.343Z,942.40
2018-01-03T12:02:03.953Z,942.44
2018-01-03T12:03:57.229Z,942.40
2018-01-03T12:04:57.231Z,942.63
2018-01-03T12:06:50.643Z,942.64
2018-01-03T12:07:50.613Z,942.58
2018-01-03T12:09:43.999Z,942.61
2018-01-03T12:10:43.995Z,942.61
2018-01-03T12:12:37.414Z,942.45
2018-01-03T12:13:37.387Z,942.17
2018-01-03T12:15:30.777Z,942.27
2018-01-03T12:16:30.772Z,942.35
2018-01-03T12:18:24.186Z,942.23
2018-01-03T12:19:24.167Z,942.21
2018-01-03T12:21:17.549Z,942.29
2018-01-03T12:22:17.551Z,942.23
2018-01-03T12:24:11.955Z,942.08
2018-01-03T12:25:11.934Z,942.14
2018-01-03T12:27:05.318Z,942.18
2018-01-03T12:28:05.315Z,942.33
2018-01-03T12:29:58.718Z,942.22
2018-01-03T12:30:58.699Z,942.41
2018-01-03T12:32:52.111Z,942.64
2018-01-03T12:33:52.103Z,942.65
2018-01-03T12:35:45.470Z,942.70
2018-01-03T12:36:45.470Z,942.58
2018-01-03T12:38:38.889Z,942.75
2018-01-03T12:39:38.861Z,942.80
2018-01-03T12:41:32.268Z,942.76
2018-01-03T12:42:32.570Z,942.66
2018-01-03T12:44:25.691Z,942.73
2018-01-03T12:45:25.668Z,942.76
2018-01-03T12:47:19.055Z,942.92
2018-01-03T12:48:19.052Z,942.88
2018-01-03T12:50:12.453Z,942.95
2018-01-03T12:51:12.438Z,942.99
2018-01-03T12:53:05.827Z,942.97
2018-01-03T12:54:05.823Z,942.87
2018-01-03T12:55:59.300Z,943.05
2018-01-03T12:56:59.287Z,942.93
2018-01-03T12:58:52.703Z,942.99
2018-01-03T12:59:52.682Z,943.01
2018-01-03T13:01:46.663Z,943.07
2018-01-03T13:02:46.087Z,943.07
2018-01-03T13:04:39.468Z,943.17
2018-01-03T13:05:39.472Z,943.26
2018-01-03T13:07:32.872Z,943.35
2018-01-03T13:08:32.892Z,943.46
2018-01-03T13:10:26.243Z,943.43
2018-01-03T13:11:26.245Z,943.53
2018-01-03T13:13:19.653Z,943.68
2018-01-03T13:14:19.643Z,943.50
2018-01-03T13:16:14.037Z,943.57
2018-01-03T13:17:14.023Z,943.69
2018-01-03T13:19:07.656Z,943.80
2018-01-03T13:20:07.414Z,943.72
2018-01-03T13:22:00.832Z,943.75
2018-01-03T13:23:00.806Z,943.72
2018-01-03T13:24:54.198Z,943.91
2018-01-03T13:25:54.196Z,943.78
2018-01-03T13:27:47.623Z,943.97
2018-01-03T13:28:47.588Z,943.99
2018-01-03T13:30:41.012Z,943.93
2018-01-03T13:31:40.975Z,943.86
2018-01-03T13:33:34.388Z,944.04
2018-01-03T13:34:34.398Z,943.92
2018-01-03T13:36:27.761Z,943.88
2018-01-03T13:37:27.773Z,943.87
2018-01-03T13:39:21.164Z,944.00
2018-01-03T13:40:21.248Z,943.91
2018-01-03T13:42:14.538Z,943.85
2018-01-03T13:43:14.537Z,944.05
2018-01-03T13:45:08.031Z,943.98
2018-01-03T13:46:09.086Z,943.94
2018-01-03T13:48:01.545Z,944.03
2018-01-03T13:49:01.404Z,944.09
2018-01-03T13:50:54.850Z,944.09
2018-01-03T13:51:54.806Z,944.21
2018-01-03T13:53:48.237Z,944.03
2018-01-03T13:54:48.191Z,944.09
2018-01-03T13:56:41.593Z,943.98
2018-01-03T13:57:41.576Z,944.14
2018-01-03T13:59:34.989Z,944.15
2018-01-03T14:00:34.972Z,944.20
2018-01-03T14:02:28.355Z,944.27
2018-01-03T14:03:28.358Z,944.23
2018-01-03T14:05:21.778Z,944.41
2018-01-03T14:06:21.836Z,944.41
2018-01-03T14:08:15.140Z,944.41
2018-01-03T14:09:15.134Z,944.45
2018-01-03T14:11:08.538Z,944.42
2018-01-03T14:12:08.526Z,944.59
2018-01-03T14:14:01.906Z,944.55
2018-01-03T14:15:01.910Z,944.55
2018-01-03T14:16:55.316Z,944.56
2018-01-03T14:17:55.296Z,944.73
2018-01-03T14:19:48.686Z,944.60
2018-01-03T14:20:48.684Z,944.72
2018-01-03T14:22:42.084Z,944.60
2018-01-03T14:23:42.067Z,944.81
2018-01-03T14:25:35.485Z,944.77
2018-01-03T14:26:35.456Z,944.80
2018-01-03T14:28:28.846Z,944.92
2018-01-03T14:29:28.851Z,944.81
2018-01-03T14:31:22.252Z,944.88
2018-01-03T14:32:22.234Z,944.93
2018-01-03T14:34:15.615Z,944.99
2018-01-03T14:35:15.614Z,944.99
2018-01-03T14:37:09.017Z,945.08
2018-01-03T14:38:09.001Z,945.15
2018-01-03T14:40:02.395Z,945.01
2018-01-03T14:41:02.394Z,945.05
2018-01-03T14:42:55.802Z,945.16
2018-01-03T14:43:56.353Z,945.24
2018-01-03T14:45:49.166Z,945.08
2018-01-03T14:46:49.169Z,945.14
2018-01-03T14:48:42.570Z,945.18
2018-01-03T14:49:42.554Z,945.09
2018-01-03T14:51:35.944Z,945.05
2018-01-03T14:52:35.943Z,945.12
2018-01-03T14:54:29.375Z,945.22
2018-01-03T14:55:29.335Z,945.18
2018-01-03T14:57:22.259Z,945.09
2018-01-03T14:58:22.231Z,945.36
2018-01-03T15:00:15.115Z,945.32
2018-01-03T15:01:15.117Z,945.32
2018-01-03T15:03:08.516Z,945.43
2018-01-03T15:04:08.502Z,945.49
2018-01-03T15:06:01.389Z,945.52
2018-01-03T15:07:01.390Z,945.52
2018-01-03T15:08:54.297Z,945.70
2018-01-03T15:09:54.287Z,945.55
2018-01-03T15:11:47.661Z,945.75
2018-01-03T15:12:47.663Z,945.68
2018-01-03T15:14:40.567Z,945.79
2018-01-03T15:15:40.568Z,945.83
2018-01-03T15:17:33.438Z,945.68
2018-01-03T15:18:33.440Z,945.64
2018-01-03T15:20:26.844Z,945.63
2018-01-03T15:21:26.824Z,945.53
2018-01-03T15:23:19.710Z,945.61
2018-01-03T15:24:19.711Z,945.61
2018-01-03T15:26:13.109Z,945.58
2018-01-03T15:27:13.093Z,945.61
2018-01-03T15:29:05.983Z,945.58
2018-01-03T15:30:05.982Z,945.62
2018-01-03T15:31:58.885Z,945.75
2018-01-03T15:32:58.873Z,945.65
2018-01-03T15:34:51.756Z,945.82
2018-01-03T15:35:51.756Z,945.80
2018-01-03T15:37:45.156Z,945.93
2018-01-03T15:38:45.145Z,945.94
2018-01-03T15:40:38.027Z,945.92
2018-01-03T15:41:38.028Z,946.03
2018-01-03T15:43:30.931Z,946.05
2018-01-03T15:44:30.914Z,946.08
2018-01-03T15:46:24.300Z,946.04
2018-01-03T15:47:24.299Z,946.12
2018-01-03T15:49:17.243Z,946.07
2018-01-03T15:50:17.187Z,946.12
2018-01-03T15:52:10.565Z,946.12
2018-01-03T15:53:10.568Z,946.11
2018-01-03T15:55:03.473Z,946.18
2018-01-03T15:56:03.456Z,946.27
2018-01-03T15:57:56.342Z,946.27
2018-01-03T15:58:56.342Z,946.29
2018-01-03T16:00:49.253Z,946.36
2018-01-03T16:01:49.237Z,946.30
2018-01-03T16:03:42.119Z,946.39
2018-01-03T16:04:42.122Z,946.37
2018-01-03T16:06:35.029Z,946.34
2018-01-03T16:07:35.009Z,946.36
2018-01-03T16:09:27.896Z,946.41
2018-01-03T16:10:27.897Z,946.48
2018-01-03T16:12:20.804Z,946.50
2018-01-03T16:13:20.787Z,946.60
2018-01-03T16:15:13.678Z,946.42
2018-01-03T16:16:13.675Z,946.51
2018-01-03T16:18:06.577Z,946.43
2018-01-03T16:19:06.561Z,946.40
2018-01-03T16:20:59.457Z,946.48
2018-01-03T16:21:59.459Z,946.47
2018-01-03T16:23:52.367Z,946.45
2018-01-03T16:24:52.349Z,946.41
2018-01-03T16:26:45.233Z,946.33
2018-01-03T16:27:45.237Z,946.35
2018-01-03T16:29:38.141Z,946.29
2018-01-03T16:30:38.122Z,946.27
2018-01-03T16:32:31.007Z,946.23
2018-01-03T16:33:31.012Z,946.25
2018-01-03T16:35:23.915Z,946.24
2018-01-03T16:36:23.899Z,946.33
2018-01-03T16:38:16.793Z,946.35
2018-01-03T16:39:16.796Z,946.34
2018-01-03T16:41:09.701Z,946.31
2018-01-03T16:42:09.684Z,946.23
2018-01-03T16:44:02.569Z,946.21
2018-01-03T16:45:02.572Z,946.24
2018-01-03T16:46:55.478Z,946.24
2018-01-03T16:47:55.458Z,946.23
2018-01-03T16:49:48.871Z,946.20
2018-01-03T16:50:48.843Z,946.17
2018-01-03T16:52:41.749Z,946.19
2018-01-03T16:53:41.731Z,946.15
2018-01-03T16:55:34.617Z,946.14
2018-01-03T16:56:34.619Z,946.09
2018-01-03T16:58:27.525Z,946.09
2018-01-03T16:59:27.505Z,946.18
2018-01-03T17:01:20.392Z,946.11
2018-01-03T17:02:20.395Z,946.12
2018-01-03T17:04:13.298Z,946.07
2018-01-03T17:05:13.281Z,945.96
2018-01-03T17:07:06.193Z,946.00
2018-01-03T17:08:06.169Z,946.04
2018-01-03T17:09:59.054Z,946.10
2018-01-03T17:10:59.055Z,946.14
2018-01-03T17:12:51.961Z,946.11
2018-01-03T17:13:51.945Z,946.14
2018-01-03T17:15:44.834Z,946.12
2018-01-03T17:16:44.835Z,946.29
2018-01-03T17:18:37.744Z,946.25
2018-01-03T17:19:37.724Z,946.25
2018-01-03T17:21:30.615Z,946.22
2018-01-03T17:22:30.610Z,946.17
2018-01-03T17:24:23.515Z,946.19
2018-01-03T17:25:23.497Z,946.19
2018-01-03T17:27:16.384Z,946.22
2018-01-03T17:28:16.383Z,946.24
2018-01-03T17:30:09.291Z,946.32
2018-01-03T17:31:09.274Z,946.35
2018-01-03T17:33:02.159Z,946.31
2018-01-03T17:34:02.162Z,946.30
2018-01-03T17:35:55.068Z,946.40
2018-01-03T17:36:55.052Z,946.45
2018-01-03T17:38:47.936Z,946.45
2018-01-03T17:39:47.938Z,946.47
2018-01-03T17:41:40.840Z,946.39
2018-01-03T17:42:40.825Z,946.45
2018-01-03T17:44:33.709Z,946.46
2018-01-03T17:45:33.710Z,946.40
2018-01-03T17:47:26.612Z,946.46
2018-01-03T17:48:26.595Z,946.46
2018-01-03T17:50:19.486Z,946.49
2018-01-03T17:51:19.489Z,946.50
2018-01-03T17:53:12.391Z,946.37
2018-01-03T17:54:12.374Z,946.46
2018-01-03T17:56:05.258Z,946.43
2018-01-03T17:57:05.259Z,946.43
2018-01-03T17:58:58.170Z,946.38
2018-01-03T17:59:58.153Z,946.51
2018-01-03T18:01:51.044Z,946.53